Time;durP1;ratioP1;P1;durP2;ratioP2;P2;SDS_P1;SDS_P2;PMS_P1;PMS_P2;Temp;Humidity;BMP_temperature;BMP_pressure;BME280_temperature;BME280_humidity;BME280_pressure;Samples;Min_cycle;Max_cycle;Signal;HPM_P1;HPM_P2
2022/01/29 00:01:30;;;;;;;0.33;0.33;;;;;;;;;;5059742;28;20028;-85
2022/01/29 00:03:57;;;;;;;2.92;1.77;;;;;;;;;;5074843;28;20346;-84
2022/01/29 00:06:23;;;;;;;3.65;2.00;;;;;;;;;;5075545;28;20043;-85
2022/01/29 00:08:51;;;;;;;1.00;1.00;;;;;;;;;;5068211;28;20026;-86
2022/01/29 00:11:17;;;;;;;7.28;2.30;;;;;;;;;;5059400;28;20411;-88
2022/01/29 00:13:43;;;;;;;1.67;0.95;;;;;;;;;;5081746;28;20091;-87
2022/01/29 00:16:10;;;;;;;1.67;1.57;;;;;;;;;;5068577;28;20110;-87
2022/01/29 00:18:36;;;;;;;1.60;1.30;;;;;;;;;;5077017;28;20760;-87
2022/01/29 00:21:03;;;;;;;5.47;1.70;;;;;;;;;;5082403;28;20028;-88
2022/01/29 00:23:29;;;;;;;0.55;0.55;;;;;;;;;;5091048;28;20157;-88
2022/01/29 00:25:55;;;;;;;0.80;0.77;;;;;;;;;;5092520;28;20027;-88
2022/01/29 00:28:21;;;;;;;0.17;0.17;;;;;;;;;;5081360;28;20043;-88
2022/01/29 00:30:47;;;;;;;2.80;2.70;;;;;;;;;;5090556;28;20045;-87
2022/01/29 00:33:15;;;;;;;1.98;1.38;;;;;;;;;;5097807;28;20286;-87
2022/01/29 00:35:41;;;;;;;6.07;2.47;;;;;;;;;;5083104;28;20023;-89
2022/01/29 00:38:07;;;;;;;2.55;2.10;;;;;;;;;;5068086;28;20032;-89
2022/01/29 00:40:36;;;;;;;1.83;1.42;;;;;;;;;;5073061;28;20154;-88
2022/01/29 00:43:02;;;;;;;8.48;2.05;;;;;;;;;;5071551;28;20048;-88
2022/01/29 00:45:28;;;;;;;1.52;1.17;;;;;;;;;;5074542;28;20067;-87
2022/01/29 00:47:55;;;;;;;5.87;1.33;;;;;;;;;;5062152;28;20061;-87
2022/01/29 00:50:21;;;;;;;1.15;1.15;;;;;;;;;;5085347;28;20028;-89
2022/01/29 00:52:50;;;;;;;1.40;0.93;;;;;;;;;;5082748;28;20096;-89
2022/01/29 00:55:16;;;;;;;1.27;1.17;;;;;;;;;;5071201;28;20119;-87
2022/01/29 00:57:43;;;;;;;1.77;0.90;;;;;;;;;;5075036;28;20032;-88
2022/01/29 01:00:10;;;;;;;4.70;1.75;;;;;;;;;;5064818;28;20464;-86
2022/01/29 01:02:36;;;;;;;1.17;0.95;;;;;;;;;;5070971;28;20051;-87
2022/01/29 01:05:03;;;;;;;2.10;1.90;;;;;;;;;;5050791;28;20459;-87
2022/01/29 01:07:30;;;;;;;7.97;2.60;;;;;;;;;;5047965;28;20033;-87
2022/01/29 01:09:56;;;;;;;;;;;;;;;;;;5065175;28;20043;-87
2022/01/29 01:12:22;;;;;;;0.82;0.82;;;;;;;;;;5078683;28;19912;-85
2022/01/29 01:14:48;;;;;;;1.88;1.67;;;;;;;;;;5069502;28;20028;-87
2022/01/29 01:17:14;;;;;;;1.30;1.20;;;;;;;;;;5082681;28;20036;-86
2022/01/29 01:19:40;;;;;;;1.43;1.43;;;;;;;;;;5080751;28;20502;-87
2022/01/29 01:22:06;;;;;;;1.25;1.25;;;;;;;;;;5052511;28;20123;-87
2022/01/29 01:24:33;;;;;;;0.93;0.93;;;;;;;;;;5055566;28;20032;-88
2022/01/29 01:26:59;;;;;;;5.35;2.35;;;;;;;;;;5071420;28;20024;-87
2022/01/29 01:29:25;;;;;;;1.38;1.27;;;;;;;;;;5082700;28;20024;-89
2022/01/29 01:31:51;;;;;;;14.23;1.90;;;;;;;;;;5050808;28;20032;-88
2022/01/29 01:34:22;;;;;;;2.80;1.33;;;;;;;;;;5081454;28;20483;-87
2022/01/29 01:36:54;;;;;;;3.85;3.00;;;;;;;;;;5079411;28;20333;-89
2022/01/29 01:39:25;;;;;;;1.02;1.00;;;;;;;;;;5080646;28;20055;-86
2022/01/29 01:41:59;;;;;;;3.90;1.80;;;;;;;;;;5083777;28;20049;-86
2022/01/29 01:44:25;;;;;;;1.65;1.55;;;;;;;;;;5072121;28;20029;-86
2022/01/29 01:46:51;;;;;;;5.70;2.17;;;;;;;;;;5068815;28;20899;-85
2022/01/29 01:49:19;;;;;;;1.95;1.45;;;;;;;;;;5085833;28;20024;-86
2022/01/29 01:51:45;;;;;;;0.93;0.93;;;;;;;;;;5078579;28;20081;-86
2022/01/29 01:54:11;;;;;;;1.10;1.03;;;;;;;;;;5090506;28;20111;-85
2022/01/29 01:56:37;;;;;;;0.73;0.73;;;;;;;;;;5077311;28;20036;-87
2022/01/29 01:59:03;;;;;;;1.58;1.48;;;;;;;;;;5063967;28;20055;-85
2022/01/29 02:01:29;;;;;;;1.53;1.40;;;;;;;;;;5086736;28;20780;-86
2022/01/29 02:03:55;;;;;;;1.50;1.40;;;;;;;;;;5072867;28;20033;-87
2022/01/29 02:06:21;;;;;;;12.40;2.47;;;;;;;;;;5071507;28;20032;-86
2022/01/29 02:08:47;;;;;;;0.60;0.60;;;;;;;;;;5068894;28;20038;-88
2022/01/29 02:11:14;;;;;;;1.30;1.25;;;;;;;;;;5067264;28;20106;-86
2022/01/29 02:13:40;;;;;;;2.35;2.17;;;;;;;;;;5062238;28;20040;-87
2022/01/29 02:16:06;;;;;;;1.13;0.77;;;;;;;;;;5049851;28;20040;-84
2022/01/29 02:18:34;;;;;;;0.55;0.55;;;;;;;;;;5065704;28;20115;-85
2022/01/29 02:21:00;;;;;;;0.50;0.50;;;;;;;;;;5078189;28;20879;-85
2022/01/29 02:23:26;;;;;;;2.00;1.87;;;;;;;;;;5081510;28;20025;-85
2022/01/29 02:25:54;;;;;;;0.85;0.85;;;;;;;;;;5068352;28;20024;-85
2022/01/29 02:28:24;;;;;;;3.92;2.20;;;;;;;;;;5069636;28;20497;-86
2022/01/29 02:30:56;;;;;;;1.02;1.02;;;;;;;;;;5069507;28;20032;-86
2022/01/29 02:33:22;;;;;;;0.73;0.73;;;;;;;;;;5069352;28;20491;-86
2022/01/29 02:35:49;;;;;;;0.47;0.47;;;;;;;;;;5081260;28;20036;-86
2022/01/29 02:38:16;;;;;;;1.42;1.05;;;;;;;;;;5065266;28;20904;-86
2022/01/29 02:41:03;;;;;;;;;;;;;;;;;;5068730;28;20056;-85
2022/01/29 02:43:34;;;;;;;1.38;1.38;;;;;;;;;;5079619;28;19960;-88
2022/01/29 02:46:06;;;;;;;1.88;1.73;;;;;;;;;;5054036;28;20032;-88
2022/01/29 02:48:33;;;;;;;1.55;1.45;;;;;;;;;;5069474;28;20024;-86
2022/01/29 02:50:59;;;;;;;2.47;2.20;;;;;;;;;;5066744;28;20124;-86
2022/01/29 02:53:25;;;;;;;0.37;0.37;;;;;;;;;;5063128;28;20055;-87
2022/01/29 02:55:51;;;;;;;0.70;0.70;;;;;;;;;;5080011;28;20039;-86
2022/01/29 02:58:17;;;;;;;1.07;1.07;;;;;;;;;;5066888;28;20052;-85
2022/01/29 03:00:43;;;;;;;3.88;2.72;;;;;;;;;;5074510;28;20594;-87
2022/01/29 03:03:09;;;;;;;1.02;0.88;;;;;;;;;;5072536;28;20399;-84
2022/01/29 03:05:35;;;;;;;1.88;1.77;;;;;;;;;;5064429;28;20028;-84
2022/01/29 03:08:01;;;;;;;0.63;0.63;;;;;;;;;;5067765;28;20035;-84
2022/01/29 03:10:28;;;;;;;1.15;1.15;;;;;;;;;;5077220;28;20028;-85
2022/01/29 03:12:54;;;;;;;;;;;;;;;;;;5077281;28;20036;-87
2022/01/29 03:15:20;;;;;;;3.65;1.85;;;;;;;;;;5075747;28;20452;-86
2022/01/29 03:17:48;;;;;;;1.17;0.97;;;;;;;;;;5065704;28;20040;-88
2022/01/29 03:20:14;;;;;;;1.05;1.05;;;;;;;;;;5076218;28;20031;-88
2022/01/29 03:22:40;;;;;;;0.30;0.30;;;;;;;;;;5082382;28;20028;-89
2022/01/29 03:25:07;;;;;;;0.33;0.33;;;;;;;;;;5072370;28;20024;-89
2022/01/29 03:27:33;;;;;;;0.85;0.85;;;;;;;;;;5069425;28;20028;-87
2022/01/29 03:29:59;;;;;;;1.85;1.15;;;;;;;;;;5071405;28;20063;-87
2022/01/29 03:32:25;;;;;;;0.33;0.33;;;;;;;;;;5065480;28;20020;-89
2022/01/29 03:34:51;;;;;;;1.20;1.15;;;;;;;;;;5067210;28;20567;-86
2022/01/29 03:37:17;;;;;;;0.95;0.90;;;;;;;;;;5074967;28;20036;-87
2022/01/29 03:39:45;;;;;;;2.28;2.17;;;;;;;;;;5079828;28;20020;-87
2022/01/29 03:42:13;;;;;;;0.73;0.73;;;;;;;;;;5076905;28;20028;-88
2022/01/29 03:44:39;;;;;;;2.28;1.17;;;;;;;;;;5079577;28;20128;-87
2022/01/29 03:47:05;;;;;;;0.68;0.65;;;;;;;;;;5080870;28;20035;-88
2022/01/29 03:49:31;;;;;;;1.50;1.40;;;;;;;;;;5068479;28;20525;-87
2022/01/29 03:51:57;;;;;;;0.30;0.30;;;;;;;;;;5074658;28;20289;-87
2022/01/29 03:54:23;;;;;;;0.88;0.88;;;;;;;;;;5062029;28;20673;-87
2022/01/29 03:56:49;;;;;;;0.65;0.55;;;;;;;;;;5081250;28;20040;-87
2022/01/29 03:59:15;;;;;;;2.92;1.65;;;;;;;;;;5089614;28;20024;-87
2022/01/29 04:01:41;;;;;;;2.40;2.20;;;;;;;;;;5086690;28;20028;-86
2022/01/29 04:04:07;;;;;;;0.47;0.43;;;;;;;;;;5091317;28;20028;-87
2022/01/29 04:06:34;;;;;;;0.67;0.67;;;;;;;;;;5062195;28;20153;-87
2022/01/29 04:09:04;;;;;;;1.25;1.10;;;;;;;;;;5100308;28;20281;-89
2022/01/29 04:11:33;;;;;;;1.63;1.50;;;;;;;;;;5078270;28;20020;-85
2022/01/29 04:13:59;;;;;;;3.67;1.85;;;;;;;;;;5072685;28;20039;-85
2022/01/29 04:16:25;;;;;;;2.13;1.90;;;;;;;;;;5087542;28;20099;-85
2022/01/29 04:18:51;;;;;;;2.65;1.75;;;;;;;;;;5083387;28;21161;-86
2022/01/29 04:21:17;;;;;;;1.25;1.15;;;;;;;;;;5093101;28;20035;-85
2022/01/29 04:23:43;;;;;;;0.98;0.98;;;;;;;;;;5090354;28;20024;-85
2022/01/29 04:26:09;;;;;;;2.80;0.52;;;;;;;;;;5085896;28;20028;-85
2022/01/29 04:28:42;;;;;;;0.98;0.90;;;;;;;;;;5092798;28;20043;-86
2022/01/29 04:31:16;;;;;;;2.13;1.73;;;;;;;;;;5087336;28;20032;-86
2022/01/29 04:33:42;;;;;;;0.98;0.98;;;;;;;;;;5084571;28;20028;-86
2022/01/29 04:36:09;;;;;;;3.47;0.93;;;;;;;;;;5064614;28;20040;-86
2022/01/29 04:38:35;;;;;;;1.67;1.58;;;;;;;;;;5085555;28;20036;-85
2022/01/29 04:41:03;;;;;;;0.45;0.45;;;;;;;;;;5084727;28;20036;-88
2022/01/29 04:43:30;;;;;;;1.05;1.05;;;;;;;;;;5086014;28;20426;-90
2022/01/29 04:45:56;;;;;;;0.73;0.70;;;;;;;;;;5092604;28;20034;-90
2022/01/29 04:48:22;;;;;;;1.60;0.70;;;;;;;;;;5098087;28;20057;-88
2022/01/29 04:50:48;;;;;;;1.13;0.93;;;;;;;;;;5099554;28;20032;-88
2022/01/29 04:53:14;;;;;;;1.53;1.50;;;;;;;;;;5087795;28;20059;-89
2022/01/29 04:55:40;;;;;;;0.60;0.60;;;;;;;;;;5095390;28;20040;-89
2022/01/29 04:58:06;;;;;;;0.50;0.50;;;;;;;;;;5084427;28;20120;-88
2022/01/29 05:00:35;;;;;;;1.70;1.60;;;;;;;;;;5089819;28;20027;-88
2022/01/29 05:03:09;;;;;;;0.63;0.63;;;;;;;;;;5068720;28;20453;-89
2022/01/29 05:05:35;;;;;;;1.02;0.88;;;;;;;;;;5083854;28;20039;-89
2022/01/29 05:08:01;;;;;;;0.97;0.97;;;;;;;;;;5092960;28;20085;-89
2022/01/29 05:10:27;;;;;;;1.00;1.00;;;;;;;;;;5085631;28;20795;-89
2022/01/29 05:12:59;;;;;;;1.08;0.77;;;;;;;;;;5075610;28;20285;-88
2022/01/29 05:28:50;;;;;;;0.30;0.30;;;;;;;;;;5082634;28;20042;-88
2022/01/29 05:31:16;;;;;;;0.77;0.77;;;;;;;;;;5096421;28;20023;-88
2022/01/29 05:33:42;;;;;;;9.82;1.70;;;;;;;;;;5085811;28;20020;-88
2022/01/29 05:36:08;;;;;;;5.97;2.45;;;;;;;;;;5086903;28;20028;-88
2022/01/29 05:38:35;;;;;;;0.65;0.65;;;;;;;;;;5083122;28;20040;-88
2022/01/29 05:41:02;;;;;;;8.93;4.05;;;;;;;;;;5101765;28;20031;-87
2022/01/29 05:43:28;;;;;;;2.05;1.35;;;;;;;;;;5083546;28;20032;-87
2022/01/29 05:45:54;;;;;;;0.70;0.70;;;;;;;;;;5082974;28;20047;-87
2022/01/29 05:48:20;;;;;;;0.68;0.68;;;;;;;;;;5086114;28;20024;-89
2022/01/29 05:50:46;;;;;;;1.70;1.60;;;;;;;;;;5086158;28;20119;-85
2022/01/29 05:53:12;;;;;;;1.67;1.58;;;;;;;;;;5087702;28;20063;-86
2022/01/29 05:55:38;;;;;;;0.40;0.40;;;;;;;;;;5082276;28;20044;-87
2022/01/29 05:58:05;;;;;;;2.80;2.60;;;;;;;;;;5080568;28;20078;-89
2022/01/29 06:00:31;;;;;;;0.60;0.60;;;;;;;;;;5080451;28;20020;-85
2022/01/29 06:03:04;;;;;;;0.38;0.38;;;;;;;;;;5087160;28;20027;-82
2022/01/29 06:05:30;;;;;;;0.98;0.98;;;;;;;;;;5088439;28;20032;-83
2022/01/29 06:07:57;;;;;;;0.20;0.20;;;;;;;;;;5082741;28;20035;-83
2022/01/29 06:10:24;;;;;;;0.32;0.32;;;;;;;;;;5067219;28;20723;-84
2022/01/29 06:13:08;;;;;;;1.50;1.08;;;;;;;;;;5082002;28;20059;-84
2022/01/29 06:15:36;;;;;;;1.38;1.25;;;;;;;;;;5078109;28;20035;-84
2022/01/29 06:18:03;;;;;;;1.70;0.38;;;;;;;;;;5061696;28;20036;-84
2022/01/29 06:20:29;;;;;;;1.85;1.20;;;;;;;;;;5090341;28;20119;-84
2022/01/29 06:22:55;;;;;;;0.50;0.50;;;;;;;;;;5084413;28;20038;-86
2022/01/29 06:25:21;;;;;;;0.77;0.75;;;;;;;;;;5078472;28;20031;-85
2022/01/29 06:27:48;;;;;;;2.73;1.23;;;;;;;;;;5077631;28;20035;-85
2022/01/29 06:30:14;;;;;;;0.93;0.93;;;;;;;;;;5077836;28;20032;-85
2022/01/29 06:32:40;;;;;;;0.22;0.22;;;;;;;;;;5075851;28;20025;-85
2022/01/29 06:35:07;;;;;;;2.97;1.70;;;;;;;;;;5090399;28;20067;-88
2022/01/29 06:37:33;;;;;;;1.60;1.50;;;;;;;;;;5083064;28;20055;-85
2022/01/29 06:39:59;;;;;;;1.57;1.37;;;;;;;;;;5080852;28;20031;-85
2022/01/29 06:42:25;;;;;;;0.90;0.90;;;;;;;;;;5080432;28;20445;-86
2022/01/29 06:44:51;;;;;;;0.25;0.25;;;;;;;;;;5089436;28;20539;-87
2022/01/29 06:47:17;;;;;;;1.73;1.17;;;;;;;;;;5082588;28;20073;-87
2022/01/29 06:49:43;;;;;;;1.13;1.05;;;;;;;;;;5084281;28;21134;-87
2022/01/29 06:52:09;;;;;;;0.70;0.70;;;;;;;;;;5066650;28;20043;-86
2022/01/29 06:54:35;;;;;;;2.15;2.05;;;;;;;;;;5079458;28;20129;-85
2022/01/29 06:57:01;;;;;;;1.63;1.53;;;;;;;;;;5079930;28;20131;-85
2022/01/29 06:59:29;;;;;;;1.58;1.48;;;;;;;;;;5081055;28;20891;-83
2022/01/29 07:01:55;;;;;;;2.42;2.28;;;;;;;;;;5093745;28;20490;-83
2022/01/29 07:04:21;;;;;;;1.38;1.30;;;;;;;;;;5095847;28;20031;-83
2022/01/29 07:06:47;;;;;;;0.75;0.75;;;;;;;;;;5085952;28;20035;-84
2022/01/29 07:09:13;;;;;;;0.80;0.77;;;;;;;;;;5081366;28;20635;-85
2022/01/29 07:11:42;;;;;;;1.07;1.07;;;;;;;;;;5080466;28;20512;-86
2022/01/29 07:14:08;;;;;;;1.10;1.10;;;;;;;;;;5090736;28;20028;-86
2022/01/29 07:16:35;;;;;;;0.53;0.53;;;;;;;;;;5088818;28;20151;-86
2022/01/29 07:19:03;;;;;;;2.03;0.88;;;;;;;;;;5079934;28;20039;-87
2022/01/29 07:21:29;;;;;;;1.15;1.08;;;;;;;;;;5080315;28;20634;-86
2022/01/29 07:23:55;;;;;;;1.23;1.13;;;;;;;;;;5086675;28;20111;-84
2022/01/29 07:26:21;;;;;;;6.63;1.17;;;;;;;;;;5080568;28;20066;-87
2022/01/29 07:28:47;;;;;;;2.90;1.13;;;;;;;;;;5095345;28;20380;-87
2022/01/29 07:31:13;;;;;;;1.77;1.67;;;;;;;;;;5077645;28;20063;-85
2022/01/29 07:33:39;;;;;;;3.23;0.97;;;;;;;;;;5082631;28;20047;-87
2022/01/29 07:36:05;;;;;;;1.10;1.10;;;;;;;;;;5077595;28;20040;-87
2022/01/29 07:38:31;;;;;;;1.35;1.02;;;;;;;;;;5084033;28;20017;-83
2022/01/29 07:40:57;;;;;;;0.75;0.75;;;;;;;;;;5084836;28;20032;-86
2022/01/29 07:43:23;;;;;;;1.60;1.50;;;;;;;;;;5090420;28;20044;-85
2022/01/29 07:45:49;;;;;;;2.00;1.27;;;;;;;;;;5065747;28;20040;-84
2022/01/29 07:48:15;;;;;;;1.10;0.80;;;;;;;;;;5088166;28;20499;-85
2022/01/29 07:50:41;;;;;;;2.50;1.58;;;;;;;;;;5087324;28;20035;-85
2022/01/29 07:53:08;;;;;;;1.10;1.08;;;;;;;;;;5086456;28;20039;-85
2022/01/29 07:55:34;;;;;;;0.35;0.35;;;;;;;;;;5085784;28;20025;-86
2022/01/29 07:58:07;;;;;;;4.73;1.70;;;;;;;;;;5089862;28;20109;-87
2022/01/29 08:00:33;;;;;;;0.75;0.75;;;;;;;;;;5087687;28;20016;-86
2022/01/29 08:03:00;;;;;;;15.65;2.47;;;;;;;;;;5081584;28;20133;-86
2022/01/29 08:05:26;;;;;;;0.20;0.20;;;;;;;;;;5083563;28;20035;-86
2022/01/29 08:07:52;;;;;;;1.13;1.13;;;;;;;;;;5081515;28;20494;-87
2022/01/29 08:10:18;;;;;;;1.53;0.93;;;;;;;;;;5082059;28;20776;-85
2022/01/29 08:12:44;;;;;;;0.65;0.65;;;;;;;;;;5079960;28;20047;-86
2022/01/29 08:15:11;;;;;;;0.30;0.30;;;;;;;;;;5088086;28;20035;-87
2022/01/29 08:17:37;;;;;;;1.70;1.57;;;;;;;;;;5070893;28;20039;-86
2022/01/29 08:20:03;;;;;;;1.25;1.13;;;;;;;;;;5085204;28;20262;-87
2022/01/29 08:22:29;;;;;;;1.40;1.30;;;;;;;;;;5084699;28;20411;-87
2022/01/29 08:24:57;;;;;;;2.93;1.87;;;;;;;;;;5086516;28;20032;-90
2022/01/29 08:27:23;;;;;;;0.43;0.40;;;;;;;;;;5079959;28;20074;-86
2022/01/29 08:29:49;;;;;;;1.27;1.17;;;;;;;;;;5083197;28;20116;-85
2022/01/29 08:32:15;;;;;;;0.93;0.85;;;;;;;;;;5083552;28;20792;-87
2022/01/29 08:34:43;;;;;;;0.40;0.40;;;;;;;;;;5085461;28;20939;-86
2022/01/29 08:37:10;;;;;;;1.75;1.65;;;;;;;;;;5061400;28;20063;-80
2022/01/29 08:39:36;;;;;;;0.43;0.43;;;;;;;;;;5078474;28;20122;-79
2022/01/29 08:42:02;;;;;;;0.80;0.80;;;;;;;;;;5083122;28;20058;-80
2022/01/29 08:44:29;;;;;;;2.58;2.40;;;;;;;;;;5090583;28;20024;-86
2022/01/29 08:46:55;;;;;;;2.25;2.05;;;;;;;;;;5067960;28;20119;-87
2022/01/29 08:49:21;;;;;;;4.07;1.95;;;;;;;;;;5094922;28;20111;-87
2022/01/29 08:51:47;;;;;;;2.28;1.15;;;;;;;;;;5086848;28;20032;-86
2022/01/29 08:54:13;;;;;;;0.30;0.30;;;;;;;;;;5095680;28;20027;-83
2022/01/29 08:56:39;;;;;;;0.57;0.57;;;;;;;;;;5073860;28;20696;-81
2022/01/29 08:59:06;;;;;;;0.55;0.55;;;;;;;;;;5089297;28;20020;-81
2022/01/29 09:01:32;;;;;;;0.63;0.63;;;;;;;;;;5093924;28;20054;-81
2022/01/29 09:03:58;;;;;;;0.90;0.90;;;;;;;;;;5078210;28;20888;-81
2022/01/29 09:06:24;;;;;;;2.30;0.70;;;;;;;;;;5084062;28;20033;-81
2022/01/29 09:08:51;;;;;;;5.20;1.63;;;;;;;;;;5066328;28;20106;-80
2022/01/29 09:11:18;;;;;;;0.35;0.35;;;;;;;;;;5066947;28;20020;-80
2022/01/29 09:13:44;;;;;;;2.20;2.05;;;;;;;;;;5080684;28;20067;-81
2022/01/29 09:16:10;;;;;;;5.45;2.08;;;;;;;;;;5079772;28;20131;-81
2022/01/29 09:18:36;;;;;;;0.63;0.63;;;;;;;;;;5076581;28;20032;-81
2022/01/29 09:21:03;;;;;;;0.65;0.65;;;;;;;;;;5080587;28;20028;-81
2022/01/29 09:23:29;;;;;;;4.15;0.82;;;;;;;;;;5078437;28;20037;-81
2022/01/29 09:25:55;;;;;;;0.23;0.23;;;;;;;;;;5076458;28;20490;-82
2022/01/29 09:28:22;;;;;;;0.52;0.52;;;;;;;;;;5078992;28;20102;-79
2022/01/29 09:30:49;;;;;;;1.55;1.23;;;;;;;;;;5077880;28;20055;-82
2022/01/29 09:33:15;;;;;;;6.18;2.42;;;;;;;;;;5077548;28;20052;-81
2022/01/29 09:35:42;;;;;;;1.20;1.20;;;;;;;;;;5063132;28;20285;-81
2022/01/29 09:38:08;;;;;;;1.60;1.50;;;;;;;;;;5082058;28;20511;-81
2022/01/29 09:40:35;;;;;;;1.67;0.93;;;;;;;;;;5078271;28;20044;-81
2022/01/29 09:43:02;;;;;;;0.98;0.70;;;;;;;;;;5059112;28;20106;-81
2022/01/29 09:45:28;;;;;;;0.30;0.30;;;;;;;;;;5080918;28;20028;-82
2022/01/29 09:48:01;;;;;;;1.13;1.13;;;;;;;;;;5051242;28;20024;-80
2022/01/29 09:50:29;;;;;;;6.78;0.70;;;;;;;;;;5064407;28;20094;-79
2022/01/29 09:52:55;;;;;;;1.08;1.05;;;;;;;;;;5069408;28;20040;-81
2022/01/29 09:55:21;;;;;;;1.88;1.75;;;;;;;;;;5056102;28;20058;-81
2022/01/29 09:57:47;;;;;;;2.90;2.23;;;;;;;;;;5069588;28;20044;-81
2022/01/29 10:00:13;;;;;;;1.35;1.10;;;;;;;;;;5071113;28;20470;-80
2022/01/29 10:02:40;;;;;;;0.40;0.40;;;;;;;;;;5079995;28;20115;-80
2022/01/29 10:05:08;;;;;;;0.83;0.83;;;;;;;;;;5079361;28;20489;-81
2022/01/29 10:07:34;;;;;;;0.40;0.40;;;;;;;;;;5060857;28;20036;-82
2022/01/29 10:10:01;;;;;;;0.70;0.70;;;;;;;;;;5078494;28;20024;-81
2022/01/29 10:12:28;;;;;;;1.05;0.95;;;;;;;;;;5074616;28;20305;-82
2022/01/29 10:14:58;;;;;;;3.67;1.42;;;;;;;;;;5073960;28;20847;-82
2022/01/29 10:17:41;;;;;;;0.70;0.57;;;;;;;;;;5078726;28;20046;-83
2022/01/29 10:20:10;;;;;;;1.20;1.10;;;;;;;;;;5077570;28;20085;-83
2022/01/29 10:22:36;;;;;;;0.40;0.40;;;;;;;;;;5078135;28;20710;-82
2022/01/29 10:25:21;;;;;;;0.93;0.93;;;;;;;;;;5078076;28;20659;-84
2022/01/29 10:28:06;;;;;;;0.75;0.75;;;;;;;;;;5077460;28;20680;-82
2022/01/29 10:30:32;;;;;;;1.17;1.13;;;;;;;;;;5078416;28;20130;-81
2022/01/29 10:33:20;;;;;;;1.08;1.08;;;;;;;;;;5077375;28;20099;-82
2022/01/29 10:35:48;;;;;;;0.90;0.57;;;;;;;;;;5079492;28;20024;-81
2022/01/29 10:38:14;;;;;;;1.88;0.88;;;;;;;;;;5077201;28;20040;-81
2022/01/29 10:40:40;;;;;;;0.80;0.80;;;;;;;;;;5077640;28;20031;-82
2022/01/29 10:43:07;;;;;;;3.30;0.93;;;;;;;;;;5071816;28;20038;-81
2022/01/29 10:45:34;;;;;;;1.75;1.52;;;;;;;;;;5066157;28;20630;-81
2022/01/29 10:48:00;;;;;;;2.95;0.75;;;;;;;;;;5078921;28;20832;-81
2022/01/29 10:50:26;;;;;;;0.95;0.95;;;;;;;;;;5066346;28;20051;-82
2022/01/29 10:52:53;;;;;;;1.35;1.25;;;;;;;;;;5070539;28;20051;-79
2022/01/29 10:55:19;;;;;;;0.73;0.73;;;;;;;;;;5072022;28;20025;-79
2022/01/29 10:57:46;;;;;;;0.80;0.75;;;;;;;;;;5073309;28;21119;-79
2022/01/29 11:00:22;;;;;;;0.15;0.15;;;;;;;;;;5068053;28;20032;-78
2022/01/29 11:02:49;;;;;;;0.88;0.88;;;;;;;;;;5067925;28;20024;-79
2022/01/29 11:05:15;;;;;;;;;;;;;;;;;;5075608;28;20162;-79
2022/01/29 11:07:51;;;;;;;0.70;0.70;;;;;;;;;;5068516;28;20382;-78
2022/01/29 11:10:18;;;;;;;0.80;0.80;;;;;;;;;;5058047;28;20039;-81
2022/01/29 11:12:45;;;;;;;1.83;1.67;;;;;;;;;;5069087;28;20071;-82
2022/01/29 11:15:11;;;;;;;1.48;1.30;;;;;;;;;;5068497;28;20039;-82
2022/01/29 11:17:38;;;;;;;4.03;1.90;;;;;;;;;;5066086;28;20559;-82
2022/01/29 11:20:04;;;;;;;1.85;1.27;;;;;;;;;;5072574;28;20028;-82
2022/01/29 11:22:40;;;;;;;5.03;0.98;;;;;;;;;;5058053;28;20516;-82
2022/01/29 11:25:08;;;;;;;0.87;0.83;;;;;;;;;;5070186;28;20464;-83
2022/01/29 11:27:37;;;;;;;1.48;1.38;;;;;;;;;;5072935;28;20070;-82
2022/01/29 11:30:09;;;;;;;2.20;2.05;;;;;;;;;;5066582;28;20021;-81
2022/01/29 11:32:53;;;;;;;1.25;0.95;;;;;;;;;;5064235;28;20041;-81
2022/01/29 11:35:28;;;;;;;0.40;0.40;;;;;;;;;;5068705;28;20016;-82
2022/01/29 11:38:06;;;;;;;0.63;0.63;;;;;;;;;;5068144;28;20064;-81
2022/01/29 11:40:36;;;;;;;2.28;1.85;;;;;;;;;;5067248;28;20028;-81
2022/01/29 11:43:14;;;;;;;0.98;0.98;;;;;;;;;;5070912;28;20747;-82
2022/01/29 11:45:42;;;;;;;0.40;0.40;;;;;;;;;;5070707;28;20068;-81
2022/01/29 11:48:09;;;;;;;2.22;1.63;;;;;;;;;;5074571;28;20036;-81
2022/01/29 11:50:35;;;;;;;2.88;2.03;;;;;;;;;;5065216;28;20036;-81
2022/01/29 11:53:02;;;;;;;6.65;4.45;;;;;;;;;;5062759;28;20508;-81
2022/01/29 11:55:28;;;;;;;;;;;;;;;;;;5074477;28;20032;-82
2022/01/29 11:58:15;;;;;;;0.50;0.50;;;;;;;;;;5075762;28;20425;-81
2022/01/29 12:00:41;;;;;;;2.25;1.92;;;;;;;;;;5076536;28;20102;-81
2022/01/29 12:03:08;;;;;;;2.88;2.63;;;;;;;;;;5067885;28;20496;-80
2022/01/29 12:05:53;;;;;;;3.63;1.70;;;;;;;;;;5071502;28;20582;-80
2022/01/29 12:08:20;;;;;;;1.90;1.50;;;;;;;;;;5071659;28;20032;-80
2022/01/29 12:10:54;;;;;;;1.77;1.38;;;;;;;;;;5060346;28;20415;-81
2022/01/29 12:13:21;;;;;;;3.03;2.05;;;;;;;;;;5059479;28;20453;-81
2022/01/29 12:15:47;;;;;;;1.58;1.27;;;;;;;;;;5059188;28;20431;-80
2022/01/29 12:18:27;;;;;;;0.50;0.50;;;;;;;;;;5080998;28;20546;-81
2022/01/29 12:20:53;;;;;;;0.40;0.40;;;;;;;;;;5071573;28;20032;-81
2022/01/29 12:23:19;;;;;;;1.37;1.27;;;;;;;;;;5067404;28;20514;-81
2022/01/29 12:25:56;;;;;;;0.50;0.50;;;;;;;;;;5080727;28;20306;-81
2022/01/29 12:28:22;;;;;;;0.75;0.75;;;;;;;;;;5076403;28;20085;-81
2022/01/29 12:30:48;;;;;;;2.83;1.23;;;;;;;;;;5074846;28;20032;-81
2022/01/29 12:33:14;;;;;;;0.37;0.37;;;;;;;;;;5076874;28;20286;-81
2022/01/29 12:35:45;;;;;;;1.90;1.55;;;;;;;;;;5076849;28;20342;-81
2022/01/29 12:38:13;;;;;;;1.48;0.80;;;;;;;;;;5081669;28;20054;-81
2022/01/29 12:40:41;;;;;;;3.85;2.78;;;;;;;;;;5069397;28;20032;-80
2022/01/29 12:43:24;;;;;;;1.48;1.42;;;;;;;;;;5076404;28;20020;-81
2022/01/29 12:45:51;;;;;;;1.38;1.27;;;;;;;;;;5076723;28;20031;-80
2022/01/29 12:48:18;;;;;;;3.65;1.58;;;;;;;;;;5063374;28;20419;-81
2022/01/29 12:50:44;;;;;;;6.55;1.55;;;;;;;;;;5067480;28;20037;-81
2022/01/29 12:53:12;;;;;;;1.35;1.27;;;;;;;;;;5070110;28;20040;-81
2022/01/29 12:55:38;;;;;;;0.50;0.50;;;;;;;;;;5069214;28;20519;-80
2022/01/29 12:58:05;;;;;;;2.03;1.93;;;;;;;;;;5066940;28;20040;-80
2022/01/29 13:00:31;;;;;;;2.47;1.55;;;;;;;;;;5066907;28;20325;-80
2022/01/29 13:03:05;;;;;;;3.72;3.10;;;;;;;;;;5068334;28;20155;-81
2022/01/29 13:05:31;;;;;;;1.02;0.93;;;;;;;;;;5062072;28;20032;-80
2022/01/29 13:07:57;;;;;;;2.65;2.45;;;;;;;;;;5082690;28;20020;-80
2022/01/29 13:10:23;;;;;;;1.48;1.38;;;;;;;;;;5078886;28;20039;-81
2022/01/29 13:12:49;;;;;;;3.58;2.80;;;;;;;;;;5078753;28;20039;-80
2022/01/29 13:15:15;;;;;;;2.72;1.95;;;;;;;;;;5075294;28;20020;-81
2022/01/29 13:17:43;;;;;;;3.15;1.20;;;;;;;;;;5065398;28;20427;-81
2022/01/29 13:20:13;;;;;;;2.67;0.82;;;;;;;;;;5067404;28;20042;-81
2022/01/29 13:22:42;;;;;;;1.42;1.33;;;;;;;;;;5071193;28;20032;-81
2022/01/29 13:25:10;;;;;;;5.65;4.90;;;;;;;;;;5066638;28;20032;-81
2022/01/29 13:27:38;;;;;;;2.20;1.20;;;;;;;;;;5065052;28;20024;-80
2022/01/29 13:30:19;;;;;;;9.77;3.60;;;;;;;;;;5067728;28;20063;-80
2022/01/29 13:32:46;;;;;;;4.57;3.30;;;;;;;;;;5069425;28;20078;-80
2022/01/29 13:35:21;;;;;;;5.00;1.08;;;;;;;;;;5076376;28;20034;-80
2022/01/29 13:37:48;;;;;;;1.33;1.23;;;;;;;;;;5077991;28;20079;-80
2022/01/29 13:40:19;;;;;;;3.75;3.15;;;;;;;;;;5076261;28;20024;-80
2022/01/29 13:42:58;;;;;;;1.40;1.30;;;;;;;;;;5074827;28;20032;-81
2022/01/29 13:45:25;;;;;;;0.50;0.50;;;;;;;;;;5074003;28;20023;-81
2022/01/29 13:47:58;;;;;;;4.38;2.88;;;;;;;;;;5052866;28;20039;-81
2022/01/29 13:50:27;;;;;;;1.27;1.08;;;;;;;;;;5076919;28;20062;-81
2022/01/29 13:52:57;;;;;;;2.08;1.98;;;;;;;;;;5076179;28;20042;-81
2022/01/29 13:55:23;;;;;;;1.25;1.23;;;;;;;;;;5075996;28;20028;-81
2022/01/29 13:58:18;;;;;;;1.83;1.67;;;;;;;;;;5078230;28;20030;-80
2022/01/29 14:00:56;;;;;;;1.27;1.27;;;;;;;;;;5066907;28;20040;-80
2022/01/29 14:03:41;;;;;;;2.97;2.08;;;;;;;;;;5067310;28;20037;-81
2022/01/29 14:06:29;;;;;;;2.72;2.33;;;;;;;;;;5067145;28;20032;-80
2022/01/29 14:09:29;;;;;;;4.15;2.15;;;;;;;;;;5072093;28;20028;-81
2022/01/29 14:11:58;;;;;;;0.93;0.75;;;;;;;;;;5011698;28;20042;-80
2022/01/29 14:14:25;;;;;;;1.90;0.98;;;;;;;;;;5010722;28;20848;-80
2022/01/29 14:16:52;;;;;;;2.20;2.05;;;;;;;;;;5008394;28;20041;-80
2022/01/29 14:19:19;;;;;;;0.80;0.80;;;;;;;;;;5005473;28;20026;-80
2022/01/29 14:21:49;;;;;;;4.00;3.65;;;;;;;;;;5006014;28;20095;-81
2022/01/29 14:24:16;;;;;;;3.13;1.30;;;;;;;;;;5005303;28;20052;-80
2022/01/29 14:26:42;;;;;;;1.15;1.02;;;;;;;;;;4986595;28;20065;-82
2022/01/29 14:29:08;;;;;;;1.67;1.58;;;;;;;;;;5003459;28;20099;-82
2022/01/29 14:31:34;;;;;;;1.77;1.67;;;;;;;;;;4989758;28;20052;-82
2022/01/29 14:34:02;;;;;;;3.17;1.42;;;;;;;;;;5004405;28;20056;-81
2022/01/29 14:36:28;;;;;;;1.35;1.35;;;;;;;;;;5005322;28;20048;-83
2022/01/29 14:38:54;;;;;;;2.20;1.17;;;;;;;;;;4994698;28;20479;-83
2022/01/29 14:41:21;;;;;;;1.13;1.08;;;;;;;;;;5012045;28;20299;-80
2022/01/29 14:43:47;;;;;;;2.65;1.35;;;;;;;;;;5014488;28;20057;-80
2022/01/29 14:46:13;;;;;;;2.20;2.00;;;;;;;;;;5007968;28;20060;-80
2022/01/29 14:48:40;;;;;;;0.98;0.93;;;;;;;;;;5071945;28;20159;-81
2022/01/29 14:51:09;;;;;;;1.53;1.43;;;;;;;;;;5068114;28;20035;-80
2022/01/29 14:53:35;;;;;;;1.58;1.48;;;;;;;;;;5061756;28;20299;-80
2022/01/29 14:56:01;;;;;;;1.73;1.25;;;;;;;;;;5066571;28;20021;-81
2022/01/29 14:58:27;;;;;;;2.17;1.92;;;;;;;;;;5068818;28;20036;-80
2022/01/29 15:00:53;;;;;;;2.53;2.33;;;;;;;;;;5074393;28;20491;-80
2022/01/29 15:03:19;;;;;;;3.20;0.90;;;;;;;;;;5058964;28;20055;-80